^^
Datos históricos de la estación: Murcia-Puente Tocinos
Diario Informe para Agosto 19, 2021 Unidades:  Métrico    Ingés   Ambas
Diario Semanal Mensual Anual
  Máxima: Mínima: Promedio:
Temperatura: 15.6 °C 5.8 °C 9.9 °C
Punto de rocio: 9.2 °C 4.8 °C 6.8 °C
Humedad: 94% 60% 82%
Velocidad viento: 13km/h 0km/h 5.6km/h
Racha viento: 20.9km/h - -
Viento- - Sur
Presión: 1027.1 hPa 1020.6 hPa -
Precipitación: 0.0 mm    
 
 
Tabla de datos para Agosto 19, 2021
Hora Temperatura Punto de rocio Presión Viento Velocidad viento Racha viento Humedad Intensidad lluvia(por hora) Nubes
00:04 8.9 °C 6 °C 1027.1 hPa SSE 3.2 km/h 8 km/h 82% 0.0 mm
00:09 8.8 °C 5.9 °C 1027.1 hPa Sur 4.5 km/h 8 km/h 82% 0.0 mm
00:14 8.7 °C 5.9 °C 1027.1 hPa Sur 4.7 km/h 8 km/h 82.7% 0.0 mm
00:19 8.7 °C 6 °C 1027.1 hPa Sur 3.1 km/h 3.7 km/h 83% 0.0 mm
00:24 8.7 °C 5.9 °C 1027.1 hPa Sur 2.9 km/h 5.6 km/h 83% 0.0 mm
00:29 8.6 °C 5.9 °C 1027.1 hPa SSE 2.3 km/h 4.8 km/h 83% 0.0 mm
00:34 8.4 °C 5.5 °C 1027.1 hPa SE 2.2 km/h 5.8 km/h 82.1% 0.0 mm
00:39 8.2 °C 5.4 °C 1027.1 hPa SE 3.1 km/h 6.4 km/h 82% 0.0 mm
00:44 8.1 °C 5.4 °C 1027.1 hPa SE 3.2 km/h 5.8 km/h 82.9% 0.0 mm
00:49 8 °C 5.3 °C 1027.1 hPa SE 3.2 km/h 6.4 km/h 83% 0.0 mm
00:54 7.9 °C 5.2 °C 1027.1 hPa ESE 3.2 km/h 5.6 km/h 83% 0.0 mm
00:59 7.8 °C 5.1 °C 1026.9 hPa SE 3.2 km/h 6.9 km/h 83.1% 0.0 mm
01:04 7.8 °C 5.3 °C 1026.9 hPa SSE 3.2 km/h 8 km/h 84% 0.0 mm
01:09 7.8 °C 5.4 °C 1026.9 hPa SSE 4.4 km/h 8 km/h 84.5% 0.0 mm
01:14 7.8 °C 5.4 °C 1026.8 hPa Sur 4.7 km/h 8.4 km/h 85% 0.0 mm
01:19 7.8 °C 5.4 °C 1026.8 hPa Sur 5.6 km/h 9.3 km/h 85% 0.0 mm
01:24 7.8 °C 5.5 °C 1026.9 hPa Sur 5.8 km/h 9.7 km/h 85.3% 0.0 mm
01:29 7.8 °C 5.6 °C 1026.9 hPa Sur 5.8 km/h 10 km/h 86% 0.0 mm
01:34 7.8 °C 5.6 °C 1026.9 hPa Sur 5.8 km/h 11.1 km/h 86% 0.0 mm
01:39 7.8 °C 5.6 °C 1026.9 hPa Sur 6.8 km/h 11.3 km/h 86% 0.0 mm
01:44 7.8 °C 5.6 °C 1026.8 hPa SSO 6.9 km/h 11.3 km/h 86% 0.0 mm
01:49 7.7 °C 5.5 °C 1026.8 hPa SSO 6.9 km/h 11.3 km/h 86.2% 0.0 mm
01:54 7.7 °C 5.7 °C 1026.8 hPa SSO 6.9 km/h 9.7 km/h 87% 0.0 mm
01:59 7.8 °C 5.7 °C 1026.7 hPa Sur 6 km/h 9.5 km/h 87% 0.0 mm
02:04 7.8 °C 5.9 °C 1026.7 hPa SSO 5.8 km/h 9.7 km/h 88% 0.0 mm
02:09 7.8 °C 6.1 °C 1026.7 hPa Sur 5.8 km/h 10.3 km/h 88.5% 0.0 mm
02:14 8 °C 6.3 °C 1026.7 hPa SSE 5.8 km/h 11.9 km/h 89% 0.0 mm
02:19 8.1 °C 6.3 °C 1026.7 hPa SSE 7.4 km/h 11.3 km/h 89% 0.0 mm
02:24 8.1 °C 6.4 °C 1026.7 hPa SSE 7.6 km/h 11.3 km/h 89% 0.0 mm
02:29 8.1 °C 6.5 °C 1026.6 hPa Sur 8.3 km/h 11.9 km/h 89.9% 0.0 mm
02:34 8.1 °C 6.6 °C 1026.6 hPa Sur 8.4 km/h 11.3 km/h 90% 0.0 mm
02:39 8.2 °C 6.6 °C 1026.6 hPa Sur 7.1 km/h 10.3 km/h 90% 0.0 mm
02:44 8.2 °C 6.8 °C 1026.6 hPa Sur 6.9 km/h 11.3 km/h 90.8% 0.0 mm
02:49 8.3 °C 6.9 °C 1026.6 hPa Sur 6.5 km/h 11.3 km/h 91% 0.0 mm
02:54 8.3 °C 7 °C 1026.6 hPa Sur 6.5 km/h 9.7 km/h 91.4% 0.0 mm
02:59 8.4 °C 7.2 °C 1026.6 hPa Sur 6.9 km/h 9.7 km/h 92% 0.0 mm
03:04 8.4 °C 7.2 °C 1026.6 hPa Sur 6.9 km/h 10 km/h 92% 0.0 mm
03:09 8.4 °C 7.2 °C 1026.6 hPa Sur 6.5 km/h 10 km/h 92.2% 0.0 mm
03:14 8.4 °C 7.3 °C 1026.6 hPa Sur 6.5 km/h 9.7 km/h 93% 0.0 mm
03:19 8.4 °C 7.3 °C 1026.6 hPa SSE 5.9 km/h 9.7 km/h 93% 0.0 mm
03:24 8.4 °C 7.4 °C 1026.6 hPa Sur 5.8 km/h 9.5 km/h 93% 0.0 mm
03:29 8.5 °C 7.4 °C 1026.6 hPa Sur 5 km/h 9.7 km/h 93% 0.0 mm
03:34 8.5 °C 7.5 °C 1026.6 hPa Sur 5 km/h 9.7 km/h 93.2% 0.0 mm
03:39 8.5 °C 7.6 °C 1026.6 hPa Sur 6.2 km/h 9.7 km/h 94% 0.0 mm
03:44 8.6 °C 7.7 °C 1026.6 hPa SSO 6.5 km/h 9.7 km/h 94% 0.0 mm
03:49 8.6 °C 7.7 °C 1026.6 hPa Sur 5.9 km/h 11.1 km/h 94% 0.0 mm
03:54 8.6 °C 7.7 °C 1026.6 hPa Sur 5.8 km/h 11.3 km/h 94% 0.0 mm
03:59 8.6 °C 7.7 °C 1026.5 hPa Sur 6.4 km/h 11.1 km/h 94% 0.0 mm
04:04 8.6 °C 7.7 °C 1026.5 hPa SSO 6.5 km/h 11.3 km/h 94% 0.0 mm
04:09 8.6 °C 7.7 °C 1026.5 hPa Sur 7.5 km/h 11.3 km/h 94% 0.0 mm
04:14 8.6 °C 7.7 °C 1026.5 hPa SO 7.6 km/h 8 km/h 94% 0.0 mm
04:19 8.6 °C 7.7 °C 1026.5 hPa SO 5.3 km/h 8 km/h 94% 0.0 mm
04:24 8.6 °C 7.7 °C 1026.5 hPa OSO 5 km/h 8 km/h 94% 0.0 mm
04:29 8.6 °C 7.7 °C 1026.4 hPa OSO 4 km/h 8.4 km/h 94% 0.0 mm
04:34 8.5 °C 7.6 °C 1026.4 hPa Oeste 3.9 km/h 8.4 km/h 94% 0.0 mm
04:39 8.4 °C 7.5 °C 1026.4 hPa Oeste 4.9 km/h 9.5 km/h 94% 0.0 mm
04:44 8.4 °C 7.5 °C 1026.2 hPa Oeste 5 km/h 9.7 km/h 94% 0.0 mm
04:49 8.4 °C 7.5 °C 1026.2 hPa Oeste 5 km/h 9.7 km/h 94% 0.0 mm
04:54 8.4 °C 7.5 °C 1026.2 hPa Oeste 5 km/h 9.7 km/h 94% 0.0 mm
04:59 8.3 °C 7.3 °C 1026.2 hPa ONO 5 km/h 9.7 km/h 93.4% 0.0 mm
05:04 8 °C 7 °C 1026.2 hPa Oeste 5 km/h 10 km/h 93% 0.0 mm
05:09 7.9 °C 6.8 °C 1026.2 hPa Oeste 5.7 km/h 9.7 km/h 93% 0.0 mm
05:14 7.9 °C 6.8 °C 1026.0 hPa Oeste 5.8 km/h 7.4 km/h 93% 0.0 mm
05:19 7.9 °C 6.8 °C 1026.0 hPa Oeste 4 km/h 8.4 km/h 93% 0.0 mm
05:24 7.9 °C 6.8 °C 1026.0 hPa Oeste 3.9 km/h 8 km/h 93% 0.0 mm
05:29 7.9 °C 6.8 °C 1025.9 hPa ONO 4.8 km/h 8.4 km/h 93% 0.0 mm
05:34 7.9 °C 6.8 °C 1025.9 hPa Oeste 5 km/h 8.7 km/h 93% 0.0 mm
05:39 7.8 °C 6.8 °C 1025.9 hPa OSO 5 km/h 9.7 km/h 93% 0.0 mm
05:44 7.8 °C 6.7 °C 1025.8 hPa Oeste 5 km/h 8 km/h 93% 0.0 mm
05:49 7.8 °C 6.7 °C 1025.8 hPa Oeste 5 km/h 8 km/h 93% 0.0 mm
05:54 7.8 °C 6.7 °C 1025.8 hPa Oeste 5 km/h 11.1 km/h 93% 0.0 mm
05:59 7.7 °C 6.6 °C 1025.8 hPa Oeste 6.4 km/h 13 km/h 92.5% 0.0 mm
06:04 7.7 °C 6.5 °C 1025.8 hPa Oeste 6.5 km/h 13 km/h 92% 0.0 mm
06:09 7.6 °C 6.4 °C 1025.9 hPa Oeste 8.2 km/h 13 km/h 92.4% 0.0 mm
06:14 7.4 °C 6.2 °C 1025.9 hPa Oeste 8.4 km/h 13 km/h 92% 0.0 mm
06:19 7.3 °C 6.2 °C 1025.9 hPa OSO 8.4 km/h 12.9 km/h 92.4% 0.0 mm
06:24 7.2 °C 6.2 °C 1025.9 hPa Oeste 8.4 km/h 12.9 km/h 93% 0.0 mm
06:29 7.2 °C 6.1 °C 1025.9 hPa Oeste 7 km/h 11.3 km/h 93% 0.0 mm
06:34 7.1 °C 6.1 °C 1025.9 hPa Oeste 6.9 km/h 11.9 km/h 93% 0.0 mm
06:39 7.1 °C 6.1 °C 1026.0 hPa Oeste 6.5 km/h 11.3 km/h 93% 0.0 mm
06:44 7 °C 6 °C 1026.0 hPa Oeste 6.5 km/h 11.3 km/h 93% 0.0 mm
06:49 7.1 °C 6 °C 1026.0 hPa Oeste 6.5 km/h 10 km/h 93% 0.0 mm
06:54 7.1 °C 6.1 °C 1026.1 hPa Oeste 6.5 km/h 9.7 km/h 93% 0.0 mm
06:59 7.1 °C 6.1 °C 1026.1 hPa Oeste 5.9 km/h 9.7 km/h 93% 0.0 mm
07:04 7.1 °C 6.1 °C 1026.1 hPa Oeste 5.8 km/h 9.3 km/h 93% 0.0 mm
07:09 7.1 °C 6.1 °C 1026.1 hPa Oeste 5.8 km/h 11.1 km/h 93% 0.0 mm
07:14 7.1 °C 6.1 °C 1026.0 hPa Oeste 5.8 km/h 13 km/h 93% 0.0 mm
07:19 7.1 °C 6.1 °C 1026.0 hPa Oeste 6.4 km/h 12.9 km/h 93% 0.0 mm
07:24 7.1 °C 6 °C 1026.0 hPa Oeste 6.5 km/h 11.9 km/h 93% 0.0 mm
07:29 7 °C 6 °C 1026.0 hPa Oeste 6.9 km/h 11.3 km/h 93.5% 0.0 mm
07:34 7 °C 6.1 °C 1026.0 hPa Oeste 6.9 km/h 9.7 km/h 94% 0.0 mm
07:39 6.9 °C 5.9 °C 1026.0 hPa Oeste 6 km/h 11.1 km/h 93.3% 0.0 mm
07:44 6.8 °C 5.8 °C 1026.0 hPa Oeste 5.8 km/h 11.3 km/h 93.2% 0.0 mm
07:49 6.7 °C 5.8 °C 1026.0 hPa Oeste 6.8 km/h 10 km/h 94% 0.0 mm
07:54 6.6 °C 5.6 °C 1026.0 hPa Oeste 6.9 km/h 11.9 km/h 93.3% 0.0 mm
07:59 6.4 °C 5.5 °C 1026.0 hPa Oeste 6.9 km/h 11.3 km/h 93.9% 0.0 mm
08:04 6.3 °C 5.5 °C 1026.0 hPa Oeste 6.9 km/h 14 km/h 94% 0.0 mm
08:09 6.2 °C 5.3 °C 1026.1 hPa Oeste 6.9 km/h 14.8 km/h 94% 0.0 mm
08:14 6.2 °C 5.3 °C 1026.1 hPa Oeste 6.9 km/h 14.8 km/h 94% 0.0 mm
08:19 6.1 °C 5.2 °C 1026.1 hPa Oeste 6.9 km/h 14.5 km/h 94% 0.0 mm
08:24 6 °C 5.1 °C 1026.1 hPa Oeste 6.9 km/h 11.1 km/h 94% 0.0 mm
08:29 5.9 °C 5 °C 1026.1 hPa Oeste 7.5 km/h 11.9 km/h 94% 0.0 mm
08:34 5.9 °C 5 °C 1026.1 hPa Oeste 7.6 km/h 11.3 km/h 94% 0.0 mm
08:39 5.8 °C 4.9 °C 1026.1 hPa Oeste 7 km/h 10 km/h 94% 0.0 mm
08:44 5.8 °C 4.9 °C 1026.1 hPa Oeste 6.9 km/h 9.7 km/h 94% 0.0 mm
08:49 5.8 °C 4.9 °C 1026.1 hPa Oeste 6 km/h 9.7 km/h 94% 0.0 mm
08:54 5.8 °C 4.9 °C 1026.1 hPa Oeste 5.8 km/h 10.3 km/h 94% 0.0 mm
08:59 5.8 °C 4.9 °C 1026.1 hPa Oeste 5.8 km/h 11.3 km/h 94% 0.0 mm
09:04 5.8 °C 4.9 °C 1026.1 hPa Oeste 5.8 km/h 9.7 km/h 94% 0.0 mm
09:09 5.9 °C 5 °C 1026.1 hPa OSO 5.1 km/h 11.1 km/h 94% 0.0 mm
09:14 5.9 °C 5 °C 1026.1 hPa Oeste 5 km/h 11.3 km/h 94% 0.0 mm
09:19 6 °C 5.1 °C 1026.1 hPa SO 5.7 km/h 11.9 km/h 94% 0.0 mm
09:24 6.1 °C 5.2 °C 1026.1 hPa OSO 5.8 km/h 11.3 km/h 94% 0.0 mm
09:29 6 °C 5.1 °C 1026.1 hPa OSO 6.3 km/h 9.5 km/h 94% 0.0 mm
09:34 5.9 °C 5 °C 1026.1 hPa OSO 6.5 km/h 9.7 km/h 94% 0.0 mm
09:39 5.9 °C 5 °C 1026.1 hPa Oeste 5.2 km/h 10.3 km/h 93.7% 0.0 mm
09:44 5.9 °C 4.8 °C 1026.0 hPa OSO 5 km/h 11.3 km/h 93% 0.0 mm
09:49 6.1 °C 5 °C 1026.0 hPa OSO 6.2 km/h 11.1 km/h 93% 0.0 mm
09:54 6.2 °C 5.1 °C 1026.1 hPa OSO 6.5 km/h 11.3 km/h 92.6% 0.0 mm
09:59 6.3 °C 5.2 °C 1026.1 hPa SO 6.5 km/h 11.3 km/h 92% 0.0 mm
10:04 6.5 °C 5.3 °C 1026.1 hPa SO 6.5 km/h 13 km/h 92% 0.0 mm
10:09 6.7 °C 5.4 °C 1026.1 hPa SSO 6.9 km/h 13.7 km/h 92% 0.0 mm
10:14 6.7 °C 5.5 °C 1026.1 hPa SSO 6.9 km/h 14.5 km/h 92% 0.0 mm
10:19 6.8 °C 5.5 °C 1026.1 hPa SO 7.5 km/h 13 km/h 91.4% 0.0 mm
10:24 6.8 °C 5.5 °C 1026.3 hPa SSO 7.6 km/h 12.9 km/h 91% 0.0 mm
10:29 7 °C 5.6 °C 1026.3 hPa SSO 7.6 km/h 11.3 km/h 91% 0.0 mm
10:34 7.2 °C 5.8 °C 1026.3 hPa SO 7.6 km/h 10 km/h 90.7% 0.0 mm
10:39 7.3 °C 5.7 °C 1026.4 hPa SO 5.4 km/h 10 km/h 89.6% 0.0 mm
10:44 7.3 °C 5.6 °C 1026.4 hPa SO 5 km/h 10 km/h 88.7% 0.0 mm
10:49 7.3 °C 5.5 °C 1026.4 hPa SO 6.3 km/h 11.1 km/h 88.5% 0.0 mm
10:54 7.4 °C 5.5 °C 1026.4 hPa SO 6.4 km/h 11.1 km/h 88% 0.0 mm
10:59 7.6 °C 5.7 °C 1026.4 hPa SSO 6.5 km/h 11.9 km/h 87.7% 0.0 mm
11:04 7.7 °C 5.7 °C 1026.4 hPa SSO 6.5 km/h 11.3 km/h 86.7% 0.0 mm
11:09 7.8 °C 5.5 °C 1026.4 hPa SSO 6.5 km/h 10.3 km/h 85.2% 0.0 mm
11:14 7.8 °C 5.5 °C 1026.3 hPa SO 6.5 km/h 11.3 km/h 84.8% 0.0 mm
11:19 8 °C 5.5 °C 1026.3 hPa SO 6.9 km/h 11.3 km/h 84% 0.0 mm
11:24 8.2 °C 5.6 °C 1026.3 hPa SSO 6.9 km/h 11.9 km/h 83.4% 0.0 mm
11:29 8.4 °C 5.6 °C 1026.3 hPa Sur 5.9 km/h 11.3 km/h 82.5% 0.0 mm
11:34 8.7 °C 5.7 °C 1026.3 hPa Sur 5.8 km/h 11.3 km/h 81.5% 0.0 mm
11:39 8.8 °C 5.7 °C 1026.3 hPa SSE 6.8 km/h 13 km/h 80.8% 0.0 mm
11:44 9 °C 5.7 °C 1026.1 hPa SSO 6.9 km/h 11.1 km/h 79.8% 0.0 mm
11:49 9.2 °C 5.7 °C 1026.1 hPa Sur 6.9 km/h 11.1 km/h 78.5% 0.0 mm
11:54 9.5 °C 5.7 °C 1026.1 hPa Sur 6.9 km/h 11.1 km/h 77.2% 0.0 mm
11:59 9.5 °C 5.4 °C 1026.0 hPa SO 6.5 km/h 11.3 km/h 76% 0.0 mm
12:04 9.4 °C 5.6 °C 1026.0 hPa SO 6.5 km/h 11.3 km/h 76.7% 0.0 mm
12:09 9.7 °C 5.8 °C 1026.0 hPa SSO 5.9 km/h 10.3 km/h 77% 0.0 mm
12:14 10 °C 6 °C 1025.8 hPa Sur 5.8 km/h 11.1 km/h 76% 0.0 mm
12:19 10.3 °C 5.8 °C 1025.8 hPa OSO 4.8 km/h 11.3 km/h 73.5% 0.0 mm
12:24 10.4 °C 5.9 °C 1025.8 hPa SO 4.7 km/h 9.7 km/h 73.5% 0.0 mm
12:29 10.5 °C 5.9 °C 1025.4 hPa SSO 5.7 km/h 9.7 km/h 73% 0.0 mm
12:34 10.7 °C 6.1 °C 1025.4 hPa SSE 5.8 km/h 9.7 km/h 73% 0.0 mm
12:39 11 °C 6.1 °C 1025.4 hPa Sur 5 km/h 11.9 km/h 71.5% 0.0 mm
12:44 11.2 °C 6.1 °C 1025.1 hPa SSE 5 km/h 11.3 km/h 71% 0.0 mm
12:49 11.3 °C 6.2 °C 1025.1 hPa SSE 6.6 km/h 11.3 km/h 70.4% 0.0 mm
12:54 11.4 °C 5.9 °C 1025.1 hPa SO 6.9 km/h 10 km/h 69.2% 0.0 mm
12:59 11.4 °C 6 °C 1024.7 hPa SO 5.3 km/h 9.7 km/h 69.4% 0.0 mm
13:04 11.5 °C 6.2 °C 1024.7 hPa Sur 5 km/h 11.1 km/h 69.8% 0.0 mm
13:09 11.7 °C 6.2 °C 1024.7 hPa OSO 4.7 km/h 11.3 km/h 69% 0.0 mm
13:14 11.7 °C 6.2 °C 1024.4 hPa Sur 4.7 km/h 8.4 km/h 69% 0.0 mm
13:19 11.8 °C 6.3 °C 1024.4 hPa SSE 4.6 km/h 11.1 km/h 69% 0.0 mm
13:24 12 °C 6.5 °C 1024.4 hPa SE 4.7 km/h 11.3 km/h 69% 0.0 mm
13:29 12.2 °C 6.6 °C 1024.0 hPa SE 5.7 km/h 9.7 km/h 68.4% 0.0 mm
13:34 12.5 °C 6.5 °C 1024.0 hPa Sur 5.8 km/h 11.1 km/h 66.9% 0.0 mm
13:39 12.5 °C 6.3 °C 1024.0 hPa SO 5 km/h 11.3 km/h 66% 0.0 mm
13:44 12.6 °C 6.5 °C 1023.7 hPa SE 5 km/h 9.7 km/h 66.6% 0.0 mm
13:49 12.8 °C 6.6 °C 1023.7 hPa ESE 4 km/h 8.4 km/h 65.9% 0.0 mm
13:54 13.1 °C 6.5 °C 1023.7 hPa Sur 3.9 km/h 9.5 km/h 64.3% 0.0 mm
13:59 13.3 °C 6.5 °C 1023.4 hPa Sur 4.6 km/h 9.7 km/h 63.5% 0.0 mm
14:04 13.3 °C 6.4 °C 1023.4 hPa Oeste 4.6 km/h 8 km/h 63% 0.0 mm
14:09 13.4 °C 6.6 °C 1023.4 hPa ONO 3.4 km/h 5.8 km/h 63.1% 0.0 mm
14:14 13.8 °C 6.6 °C 1023.3 hPa SSO 3.2 km/h 8.7 km/h 61.8% 0.0 mm
14:19 13.9 °C 6.4 °C 1023.3 hPa OSO 3.2 km/h 9.7 km/h 60.7% 0.0 mm
14:24 14 °C 6.5 °C 1023.3 hPa SO 3.2 km/h 9.5 km/h 60.5% 0.0 mm
14:29 13.9 °C 6.3 °C 1022.9 hPa OSO 3.2 km/h 9.7 km/h 60.1% 0.0 mm
14:34 13.9 °C 6.5 °C 1022.9 hPa Sur 3.2 km/h 9.7 km/h 60.9% 0.0 mm
14:39 14 °C 6.6 °C 1022.9 hPa SSE 3.8 km/h 8 km/h 61% 0.0 mm
14:44 14.2 °C 6.8 °C 1022.7 hPa ESE 3.9 km/h 6.4 km/h 61% 0.0 mm
14:49 14.5 °C 6.8 °C 1022.7 hPa SO 2.5 km/h 7.4 km/h 60.1% 0.0 mm
14:54 14.6 °C 6.9 °C 1022.7 hPa NO 2.2 km/h 8 km/h 60% 0.0 mm
14:59 14.5 °C 6.9 °C 1022.4 hPa North 3.1 km/h 8 km/h 60.4% 0.0 mm
15:04 14.4 °C 7 °C 1022.4 hPa NNO 3.2 km/h 8 km/h 61% 0.0 mm
15:09 14.4 °C 7 °C 1022.4 hPa NO 3.8 km/h 9.3 km/h 61% 0.0 mm
15:14 14.4 °C 7.2 °C 1022.2 hPa North 3.9 km/h 9.7 km/h 61.8% 0.0 mm
15:19 14.5 °C 7.3 °C 1022.2 hPa North 3.9 km/h 7.6 km/h 62% 0.0 mm
15:24 14.6 °C 7.4 °C 1022.2 hPa NNE 3.9 km/h 8.4 km/h 62.1% 0.0 mm
15:29 14.6 °C 7.4 °C 1022.1 hPa North 4.5 km/h 10 km/h 62% 0.0 mm
15:34 14.6 °C 7.4 °C 1022.1 hPa North 4.7 km/h 9.7 km/h 62% 0.0 mm
15:39 14.7 °C 7.5 °C 1022.1 hPa NNO 4.6 km/h 11.1 km/h 62% 0.0 mm
15:44 14.7 °C 7.5 °C 1022.0 hPa NNO 4.7 km/h 11.9 km/h 62% 0.0 mm
15:49 14.7 °C 7.5 °C 1022.0 hPa NNE 6.3 km/h 13 km/h 62% 0.0 mm
15:54 14.8 °C 7.6 °C 1022.0 hPa NNE 6.5 km/h 12.9 km/h 62% 0.0 mm
15:59 14.9 °C 7.7 °C 1021.9 hPa North 6.5 km/h 11.3 km/h 62% 0.0 mm
16:04 14.9 °C 7.6 °C 1021.9 hPa NNE 6.5 km/h 9.7 km/h 61.4% 0.0 mm
16:09 15.1 °C 7.7 °C 1021.9 hPa North 5.9 km/h 13.7 km/h 61.5% 0.0 mm
16:14 15 °C 7.6 °C 1021.7 hPa NNE 5.8 km/h 14.5 km/h 61.2% 0.0 mm
16:19 15 °C 7.8 °C 1021.7 hPa NNE 8.2 km/h 12.9 km/h 62% 0.0 mm
16:24 15.1 °C 7.9 °C 1021.7 hPa NNE 8.4 km/h 11.9 km/h 62% 0.0 mm
16:29 15.1 °C 7.9 °C 1021.6 hPa North 6.7 km/h 11.3 km/h 62% 0.0 mm
16:34 15.2 °C 7.9 °C 1021.6 hPa NNO 6.5 km/h 11.3 km/h 62% 0.0 mm
16:39 15.2 °C 8 °C 1021.6 hPa North 5.1 km/h 12.2 km/h 62.2% 0.0 mm
16:44 15.3 °C 8.7 °C 1021.5 hPa ENE 5 km/h 17.2 km/h 64.5% 0.0 mm
16:49 15.6 °C 9.2 °C 1021.5 hPa Este 8.1 km/h 19 km/h 66% 0.0 mm
16:54 15.6 °C 9.2 °C 1021.5 hPa ENE 8.4 km/h 19.3 km/h 66% 0.0 mm
16:59 15.5 °C 9.2 °C 1021.3 hPa ENE 9.8 km/h 20.9 km/h 66% 0.0 mm
17:04 15.5 °C 9.2 °C 1021.3 hPa Este 10 km/h 20.9 km/h 66% 0.0 mm
17:09 15.4 °C 9.1 °C 1021.3 hPa Este 10.3 km/h 18.5 km/h 66.3% 0.0 mm
17:14 15.3 °C 9.2 °C 1021.2 hPa Este 10.3 km/h 19.3 km/h 67% 0.0 mm
17:19 15.2 °C 9.1 °C 1021.2 hPa Este 11.8 km/h 19.3 km/h 67% 0.0 mm
17:24 15.2 °C 9.2 °C 1021.2 hPa Este 11.9 km/h 14.8 km/h 67.4% 0.0 mm
17:29 15.1 °C 9.2 °C 1021.2 hPa Este 9.6 km/h 20.9 km/h 68% 0.0 mm
17:34 14.9 °C 9.2 °C 1021.2 hPa ESE 9.5 km/h 20.9 km/h 68.5% 0.0 mm
17:39 14.8 °C 9.1 °C 1021.2 hPa ESE 12 km/h 20.9 km/h 69% 0.0 mm
17:44 14.6 °C 9.2 °C 1021.2 hPa Este 12.2 km/h 20.9 km/h 69.9% 0.0 mm
17:49 14.4 °C 9.1 °C 1021.2 hPa ESE 13 km/h 20.9 km/h 70.5% 0.0 mm
17:54 14.3 °C 9.1 °C 1021.3 hPa Este 13 km/h 20.9 km/h 71% 0.0 mm
17:59 14.1 °C 9.1 °C 1021.3 hPa ESE 13 km/h 20.9 km/h 71.8% 0.0 mm
18:04 14 °C 9 °C 1021.3 hPa ESE 13 km/h 20.9 km/h 72% 0.0 mm
18:09 13.9 °C 9 °C 1021.3 hPa ESE 10.5 km/h 19.3 km/h 72.2% 0.0 mm
18:14 13.8 °C 9 °C 1021.3 hPa Este 10 km/h 16.1 km/h 73% 0.0 mm
18:19 13.7 °C 8.9 °C 1021.3 hPa Este 10 km/h 14.8 km/h 73% 0.0 mm
18:24 13.6 °C 8.9 °C 1021.3 hPa Este 10 km/h 14.5 km/h 73.7% 0.0 mm
18:29 13.4 °C 8.8 °C 1021.3 hPa Este 7.3 km/h 11.3 km/h 74% 0.0 mm
18:34 13.3 °C 8.8 °C 1021.3 hPa ENE 6.9 km/h 9.7 km/h 74.4% 0.0 mm
18:39 13.2 °C 8.8 °C 1021.5 hPa Este 5.1 km/h 10.3 km/h 75% 0.0 mm
18:44 13.1 °C 8.8 °C 1021.5 hPa Este 5 km/h 16.4 km/h 75.5% 0.0 mm
18:49 12.9 °C 8.8 °C 1021.5 hPa Este 6.8 km/h 16.7 km/h 76% 0.0 mm
18:54 12.8 °C 8.7 °C 1021.5 hPa Este 6.9 km/h 16.1 km/h 76% 0.0 mm
18:59 12.7 °C 8.6 °C 1021.3 hPa Este 6.9 km/h 10 km/h 76% 0.0 mm
19:04 12.6 °C 8.6 °C 1021.3 hPa ENE 6.9 km/h 9.7 km/h 76.6% 0.0 mm
19:09 12.6 °C 8.6 °C 1021.4 hPa ENE 4.3 km/h 9.7 km/h 77% 0.0 mm
19:14 12.4 °C 8.5 °C 1021.4 hPa ENE 3.9 km/h 9.3 km/h 77% 0.0 mm
19:19 12.3 °C 8.4 °C 1021.4 hPa ENE 3.9 km/h 9.7 km/h 77% 0.0 mm
19:24 12.3 °C 8.5 °C 1021.6 hPa SE 3.9 km/h 8 km/h 77.5% 0.0 mm
19:29 12.2 °C 8.5 °C 1021.6 hPa SSE 3.3 km/h 8 km/h 78% 0.0 mm
19:34 12.2 °C 8.5 °C 1021.6 hPa Sur 3.2 km/h 8 km/h 78% 0.0 mm
19:39 12.1 °C 8.4 °C 1021.7 hPa SO 2.9 km/h 8 km/h 78% 0.0 mm
19:44 12 °C 8.3 °C 1021.7 hPa Oeste 2.9 km/h 8 km/h 78% 0.0 mm
19:49 11.8 °C 8.1 °C 1021.7 hPa NNE 3.2 km/h 7.4 km/h 78.2% 0.0 mm
19:54 11.7 °C 8.1 °C 1021.7 hPa NE 3.2 km/h 8 km/h 79% 0.0 mm
19:59 11.5 °C 8.1 °C 1021.6 hPa NE 3.2 km/h 4.8 km/h 79.6% 0.0 mm
20:04 11.4 °C 8.1 °C 1021.6 hPa NE 3.2 km/h 5.8 km/h 80% 0.0 mm
20:09 11.4 °C 8.1 °C 1021.6 hPa Este 2.4 km/h 7.4 km/h 80.2% 0.0 mm
20:14 11.4 °C 8.3 °C 1021.5 hPa Este 2.2 km/h 8 km/h 81% 0.0 mm
20:19 11.4 °C 8.3 °C 1021.5 hPa ENE 4.5 km/h 8 km/h 81% 0.0 mm
20:24 11.4 °C 8.3 °C 1021.6 hPa ENE 4.7 km/h 8 km/h 81% 0.0 mm
20:29 11.3 °C 8.2 °C 1021.6 hPa ENE 3.4 km/h 8.4 km/h 80.6% 0.0 mm
20:34 11.2 °C 8 °C 1021.6 hPa NE 3.2 km/h 10 km/h 80.7% 0.0 mm
20:39 10.9 °C 7.9 °C 1021.6 hPa ENE 5.4 km/h 9.7 km/h 81.8% 0.0 mm
20:44 10.8 °C 8 °C 1021.2 hPa ENE 5.8 km/h 8 km/h 82.9% 0.0 mm
20:49 10.8 °C 8 °C 1021.2 hPa ENE 4 km/h 8 km/h 83% 0.0 mm
20:54 10.7 °C 7.9 °C 1021.2 hPa ENE 3.9 km/h 4.8 km/h 83% 0.0 mm
20:59 10.6 °C 7.8 °C 1021.2 hPa ENE 0.2 km/h 4.7 km/h 83% 0.0 mm
21:04 10.4 °C 7.7 °C 1021.2 hPa Calm   5 km/h 83.2% 0.0 mm
21:09 10.3 °C 7.7 °C 1021.2 hPa Este 2.7 km/h 7.4 km/h 84% 0.0 mm
21:14 10.3 °C 7.7 °C 1021.2 hPa Este 2.9 km/h 8 km/h 84% 0.0 mm
21:19 10.2 °C 7.6 °C 1021.2 hPa Este 2.9 km/h 2.3 km/h 84% 0.0 mm
21:24 10.1 °C 7.6 °C 1021.2 hPa Este 2.9 km/h 5 km/h 84.1% 0.0 mm
21:29 10.1 °C 7.7 °C 1021.1 hPa Este 2.4 km/h 5.6 km/h 85% 0.0 mm
21:34 10 °C 7.6 °C 1021.1 hPa ENE 2.2 km/h 5.8 km/h 85% 0.0 mm
21:39 10 °C 7.7 °C 1021.1 hPa ENE 3.1 km/h 6.4 km/h 85.8% 0.0 mm
21:44 9.9 °C 7.7 °C 1021.0 hPa ENE 3.2 km/h 4.8 km/h 86% 0.0 mm
21:49 9.9 °C 7.7 °C 1021.0 hPa ENE 0.4 km/h 5.6 km/h 86% 0.0 mm
21:54 9.9 °C 7.7 °C 1021.0 hPa Calm   5.8 km/h 86% 0.0 mm
21:59 9.9 °C 7.7 °C 1021.0 hPa ENE 2.9 km/h 7.6 km/h 86% 0.0 mm
22:04 9.8 °C 7.6 °C 1021.0 hPa SE 3.2 km/h 8 km/h 86% 0.0 mm
22:09 9.8 °C 7.5 °C 1021.0 hPa SE 4.6 km/h 8 km/h 86% 0.0 mm
22:14 9.6 °C 7.4 °C 1021.0 hPa Sur 4.7 km/h 6.4 km/h 86% 0.0 mm
22:19 9.4 °C 7.2 °C 1021.0 hPa SSO 3.3 km/h 6.4 km/h 86% 0.0 mm
22:24 9.3 °C 7.2 °C 1021.0 hPa SSO 3.2 km/h 4.8 km/h 86.9% 0.0 mm
22:29 9.3 °C 7.2 °C 1021.0 hPa SSO 2.3 km/h 4.8 km/h 87.1% 0.0 mm
22:34 9.3 °C 7.4 °C 1021.0 hPa SSO 2.2 km/h 5.8 km/h 88% 0.0 mm
22:39 9.3 °C 7.4 °C 1021.0 hPa SSO 3.1 km/h 6.4 km/h 88% 0.0 mm
22:44 9.4 °C 7.5 °C 1021.0 hPa SSO 3.2 km/h 5.6 km/h 88% 0.0 mm
22:49 9.3 °C 7.4 °C 1021.0 hPa SSO 2.9 km/h 4.8 km/h 88% 0.0 mm
22:54 9.3 °C 7.4 °C 1021.0 hPa SSO 2.9 km/h 5.6 km/h 88% 0.0 mm
22:59 9.3 °C 7.4 °C 1020.8 hPa ESE 2.9 km/h 5.8 km/h 88% 0.0 mm
23:04 9.2 °C 7.3 °C 1020.8 hPa ESE 2.9 km/h 6.4 km/h 87.6% 0.0 mm
23:09 9 °C 7 °C 1020.8 hPa ESE 2.9 km/h 5.8 km/h 87% 0.0 mm
23:14 8.8 °C 6.8 °C 1020.6 hPa ESE 2.9 km/h 6.4 km/h 87% 0.0 mm
23:19 8.7 °C 6.8 °C 1020.6 hPa ESE 3.2 km/h 5.8 km/h 87.9% 0.0 mm
23:24 8.7 °C 6.9 °C 1020.6 hPa ESE 3.2 km/h 6.4 km/h 88.4% 0.0 mm
23:29 8.7 °C 7 °C 1020.6 hPa ESE 3.2 km/h 5.8 km/h 89% 0.0 mm
23:34 8.7 °C 7 °C 1020.6 hPa ESE 3.2 km/h 6.4 km/h 89% 0.0 mm
23:39 8.7 °C 7 °C 1020.6 hPa ESE 3.2 km/h 3.9 km/h 89% 0.0 mm
Murcia-Puente Tocinos, Espa?a
Compliments of Weather Underground - 3 mb

La estación de MeteoMurcia.com, publica sus datos en los siguientes proyectos:

Weather Underground PWS IMURCIAP2 Meteoclimatic www.awekas.at

W3Counter
Web Analytics